createdAt,value
2018-11-10T00:02:14.681Z,18.90
2018-11-10T00:04:42.959Z,21.97
2018-11-10T00:07:11.252Z,21.67
2018-11-10T00:09:39.543Z,22.60
2018-11-10T00:12:07.839Z,18.10
2018-11-10T00:14:36.112Z,24.67
2018-11-10T00:17:04.417Z,23.30
2018-11-10T00:19:32.689Z,25.33
2018-11-10T00:22:00.988Z,24.70
2018-11-10T00:24:29.274Z,22.93
2018-11-10T00:26:57.573Z,24.63
2018-11-10T00:29:25.857Z,16.93
2018-11-10T00:31:54.156Z,18.40
2018-11-10T00:34:22.540Z,20.77
2018-11-10T00:36:50.838Z,19.07
2018-11-10T00:39:19.124Z,25.63
2018-11-10T00:41:47.431Z,21.53
2018-11-10T00:44:15.743Z,27.57
2018-11-10T00:46:44.048Z,26.47
2018-11-10T00:49:12.356Z,29.60
2018-11-10T00:51:40.677Z,24.57
2018-11-10T00:54:08.982Z,29.23
2018-11-10T00:56:37.277Z,26.37
2018-11-10T00:59:05.572Z,27.17
2018-11-10T01:01:33.879Z,22.13
2018-11-10T01:04:02.172Z,20.27
2018-11-10T01:06:30.465Z,20.80
2018-11-10T01:08:58.747Z,21.50
2018-11-10T01:11:27.052Z,28.87
2018-11-10T01:13:55.333Z,21.07
2018-11-10T01:16:23.664Z,17.77
2018-11-10T01:18:51.945Z,22.57
2018-11-10T01:21:20.245Z,20.27
2018-11-10T01:23:48.536Z,18.70
2018-11-10T01:26:16.834Z,14.37
2018-11-10T01:28:45.112Z,16.73
2018-11-10T01:31:13.408Z,19.90
2018-11-10T01:33:41.685Z,15.27
2018-11-10T01:36:09.980Z,16.80
2018-11-10T01:38:38.269Z,23.47
2018-11-10T01:41:06.796Z,21.67
2018-11-10T01:43:35.081Z,22.63
2018-11-10T01:46:03.404Z,18.50
2018-11-10T01:48:31.676Z,21.60
2018-11-10T01:50:59.975Z,23.10
2018-11-10T01:53:28.349Z,20.17
2018-11-10T01:55:56.656Z,23.13
2018-11-10T01:58:24.959Z,18.63
2018-11-10T02:00:53.236Z,22.10
2018-11-10T02:03:21.540Z,21.67
2018-11-10T02:05:49.816Z,16.03
2018-11-10T02:08:18.112Z,18.33
2018-11-10T02:10:46.392Z,16.07
2018-11-10T02:13:14.706Z,13.43
2018-11-10T02:15:42.996Z,22.53
2018-11-10T02:18:11.297Z,21.93
2018-11-10T02:20:39.620Z,25.97
2018-11-10T02:23:07.933Z,20.43
2018-11-10T02:25:36.250Z,22.23
2018-11-10T02:28:04.578Z,21.70
2018-11-10T02:30:32.876Z,17.50
2018-11-10T02:33:01.177Z,12.30
2018-11-10T02:35:30.104Z,11.00
2018-11-10T02:37:58.410Z,10.50
2018-11-10T02:40:26.778Z,15.73
2018-11-10T02:42:55.072Z,21.23
2018-11-10T02:45:23.387Z,17.90
2018-11-10T02:47:51.702Z,19.93
2018-11-10T02:50:20.000Z,18.10
2018-11-10T02:52:48.374Z,21.07
2018-11-10T02:55:16.636Z,16.63
2018-11-10T02:57:44.935Z,16.27
2018-11-10T03:00:14.204Z,13.93
2018-11-10T03:02:42.583Z,18.00
2018-11-10T03:05:11.389Z,19.10
2018-11-10T03:07:39.888Z,23.50
2018-11-10T03:10:09.368Z,23.23
2018-11-10T03:12:38.376Z,19.40
2018-11-10T03:15:07.362Z,22.43
2018-11-10T03:17:35.670Z,25.80
2018-11-10T03:20:04.525Z,23.10
2018-11-10T03:22:32.830Z,25.93
2018-11-10T03:25:01.107Z,18.13
2018-11-10T03:27:29.404Z,23.60
2018-11-10T03:29:57.693Z,19.93
2018-11-10T03:32:26.009Z,23.03
2018-11-10T03:34:54.312Z,28.33
2018-11-10T03:37:22.620Z,24.97
2018-11-10T03:39:50.903Z,29.20
2018-11-10T03:42:19.231Z,27.17
2018-11-10T03:44:47.542Z,27.33
2018-11-10T03:47:15.852Z,26.40
2018-11-10T03:49:44.176Z,27.03
2018-11-10T03:52:12.487Z,27.97
2018-11-10T03:54:40.775Z,27.97
2018-11-10T03:57:09.080Z,28.47
2018-11-10T03:59:37.368Z,28.10
2018-11-10T04:02:06.036Z,20.63
2018-11-10T04:04:34.326Z,26.43
2018-11-10T04:07:02.638Z,18.30
2018-11-10T04:09:30.928Z,26.83
2018-11-10T04:11:59.252Z,26.77
2018-11-10T04:14:27.553Z,23.80
2018-11-10T04:16:55.841Z,19.77
2018-11-10T04:19:24.161Z,16.77
2018-11-10T04:21:52.451Z,14.77
2018-11-10T04:24:20.748Z,11.03
2018-11-10T04:26:49.027Z,18.63
2018-11-10T04:29:17.319Z,17.47
2018-11-10T04:31:45.608Z,18.50
2018-11-10T04:34:13.912Z,16.70
2018-11-10T04:36:42.200Z,19.17
2018-11-10T04:39:10.552Z,22.23
2018-11-10T04:41:38.832Z,19.40
2018-11-10T04:44:07.256Z,17.37
2018-11-10T04:46:35.556Z,11.90
2018-11-10T04:49:03.878Z,15.50
2018-11-10T04:51:32.152Z,15.83
2018-11-10T04:54:00.452Z,14.90
2018-11-10T04:56:28.765Z,13.47
2018-11-10T04:58:57.072Z,18.67
2018-11-10T05:01:25.711Z,18.80
2018-11-10T05:03:54.087Z,23.00
2018-11-10T05:06:22.372Z,23.67
2018-11-10T05:08:50.692Z,25.83
2018-11-10T05:11:18.984Z,22.47
2018-11-10T05:13:47.288Z,28.67
2018-11-10T05:16:15.572Z,28.60
2018-11-10T05:18:43.867Z,27.03
2018-11-10T05:21:12.157Z,29.97
2018-11-10T05:23:40.464Z,28.50
2018-11-10T05:26:08.770Z,27.80
2018-11-10T05:28:37.085Z,29.53
2018-11-10T05:31:05.388Z,30.63
2018-11-10T05:33:33.705Z,29.33
2018-11-10T05:36:02.003Z,29.20
2018-11-10T05:38:30.320Z,28.60
2018-11-10T05:40:58.602Z,29.50
2018-11-10T05:43:26.898Z,28.47
2018-11-10T05:46:01.775Z,28.20
2018-11-10T05:48:30.151Z,28.37
2018-11-10T05:50:58.436Z,26.70
2018-11-10T05:53:26.746Z,24.07
2018-11-10T05:55:55.028Z,28.93
2018-11-10T05:58:23.335Z,28.73
2018-11-10T06:00:51.615Z,28.67
2018-11-10T06:03:20.076Z,29.87
2018-11-10T06:05:48.266Z,29.23
2018-11-10T06:08:16.572Z,29.70
2018-11-10T06:10:44.856Z,30.50
2018-11-10T06:13:13.163Z,29.20
2018-11-10T06:15:41.460Z,30.03
2018-11-10T06:18:09.765Z,31.63
2018-11-10T06:20:38.065Z,30.20
2018-11-10T06:23:06.368Z,31.13
2018-11-10T06:25:34.652Z,28.40
2018-11-10T06:28:02.970Z,27.63
2018-11-10T06:30:31.259Z,30.50
2018-11-10T06:32:59.559Z,27.37
2018-11-10T06:35:27.861Z,27.87
2018-11-10T06:37:56.141Z,27.47
2018-11-10T06:40:24.444Z,27.30
2018-11-10T06:42:52.719Z,26.57
2018-11-10T06:45:21.061Z,26.67
2018-11-10T06:47:49.352Z,25.97
2018-11-10T06:50:17.647Z,28.70
2018-11-10T06:52:45.997Z,24.67
2018-11-10T06:55:14.266Z,27.90
2018-11-10T06:57:42.553Z,26.93
2018-11-10T07:00:12.769Z,27.27
2018-11-10T07:02:41.385Z,28.20
2018-11-10T07:05:10.203Z,27.73
2018-11-10T07:07:39.065Z,26.47
2018-11-10T07:10:07.880Z,28.00
2018-11-10T07:12:36.191Z,27.00
2018-11-10T07:15:04.937Z,26.73
2018-11-10T07:17:33.231Z,27.10
2018-11-10T07:20:01.560Z,28.33
2018-11-10T07:22:29.844Z,26.13
2018-11-10T07:24:58.152Z,25.83
2018-11-10T07:27:26.457Z,27.43
2018-11-10T07:29:54.764Z,27.17
2018-11-10T07:32:23.060Z,27.73
2018-11-10T07:34:51.367Z,27.60
2018-11-10T07:37:19.668Z,25.50
2018-11-10T07:39:47.983Z,28.43
2018-11-10T07:42:16.265Z,27.83
2018-11-10T07:44:44.576Z,27.10
2018-11-10T07:47:12.862Z,27.57
2018-11-10T07:49:41.173Z,27.33
2018-11-10T07:52:09.461Z,27.13
2018-11-10T07:54:37.760Z,26.60
2018-11-10T07:57:06.145Z,27.37
2018-11-10T07:59:34.447Z,26.43
2018-11-10T08:02:02.737Z,27.80
2018-11-10T08:04:31.061Z,28.93
2018-11-10T08:06:59.356Z,27.50
2018-11-10T08:09:27.656Z,27.27
2018-11-10T08:11:55.983Z,28.07
2018-11-10T08:14:24.269Z,26.80
2018-11-10T08:16:52.560Z,27.23
2018-11-10T08:19:20.856Z,26.93
2018-11-10T08:21:49.131Z,27.83
2018-11-10T08:24:17.442Z,26.53
2018-11-10T08:26:45.728Z,25.00
2018-11-10T08:29:14.039Z,27.60
2018-11-10T08:31:42.331Z,26.40
2018-11-10T08:34:10.639Z,27.80
2018-11-10T08:36:38.914Z,28.03
2018-11-10T08:39:08.850Z,27.27
2018-11-10T08:41:37.365Z,27.13
2018-11-10T08:44:05.889Z,25.43
2018-11-10T08:46:34.224Z,23.20
2018-11-10T08:49:02.658Z,22.50
2018-11-10T08:51:31.827Z,21.80
2018-11-10T08:54:02.346Z,23.33
2018-11-10T08:56:30.696Z,24.13
2018-11-10T08:59:04.184Z,23.63
2018-11-10T09:01:32.630Z,22.07
2018-11-10T09:04:01.149Z,23.13
2018-11-10T09:06:32.467Z,21.20
2018-11-10T09:09:00.768Z,23.90
2018-11-10T09:11:29.089Z,22.07
2018-11-10T09:13:59.859Z,24.03
2018-11-10T09:16:28.260Z,24.47
2018-11-10T09:18:56.564Z,23.17
2018-11-10T09:21:25.845Z,24.13
2018-11-10T09:23:54.271Z,24.83
2018-11-10T09:26:22.701Z,23.07
2018-11-10T09:28:53.046Z,23.57
2018-11-10T09:31:23.097Z,23.90
2018-11-10T09:33:51.482Z,23.93
2018-11-10T09:36:19.815Z,22.70
2018-11-10T09:38:48.155Z,23.20
2018-11-10T09:41:16.477Z,20.83
2018-11-10T09:43:44.776Z,20.93
2018-11-10T09:46:13.221Z,22.47
2018-11-10T09:48:41.602Z,22.30
2018-11-10T09:51:09.924Z,20.17
2018-11-10T09:53:38.221Z,21.63
2018-11-10T09:56:06.652Z,21.47
2018-11-10T09:58:34.956Z,20.13
2018-11-10T10:01:03.402Z,20.03
2018-11-10T10:03:31.596Z,20.70
2018-11-10T10:05:59.899Z,18.23
2018-11-10T10:08:28.508Z,19.87
2018-11-10T10:10:56.879Z,18.50
2018-11-10T10:13:25.172Z,18.00
2018-11-10T10:15:53.491Z,19.77
2018-11-10T10:18:21.793Z,19.53
2018-11-10T10:20:50.100Z,20.37
2018-11-10T10:23:18.429Z,19.70
2018-11-10T10:25:46.745Z,19.83
2018-11-10T10:28:15.107Z,18.90
2018-11-10T10:30:43.388Z,19.10
2018-11-10T10:33:11.692Z,17.97
2018-11-10T10:35:40.208Z,18.50
2018-11-10T10:38:08.337Z,17.13
2018-11-10T10:40:36.687Z,18.00
2018-11-10T10:43:05.033Z,16.97
2018-11-10T10:45:33.368Z,16.50
2018-11-10T10:48:01.665Z,14.97
2018-11-10T10:50:30.008Z,17.17
2018-11-10T10:52:58.312Z,16.80
2018-11-10T10:55:29.484Z,17.13
2018-11-10T10:57:57.778Z,16.93
2018-11-10T11:00:31.373Z,15.50
2018-11-10T11:03:05.051Z,14.57
2018-11-10T11:05:38.773Z,13.60
2018-11-10T11:08:07.102Z,12.67
2018-11-10T11:10:35.417Z,14.30
2018-11-10T11:13:03.712Z,14.37
2018-11-10T11:15:32.177Z,14.50
2018-11-10T11:18:00.405Z,14.33
2018-11-10T11:20:28.729Z,13.83
2018-11-10T11:22:57.036Z,12.77
2018-11-10T11:25:25.364Z,11.70
2018-11-10T11:27:53.661Z,13.60
2018-11-10T11:30:21.973Z,13.00
2018-11-10T11:32:50.300Z,12.50
2018-11-10T11:35:18.640Z,11.87
2018-11-10T11:37:46.984Z,11.87
2018-11-10T11:40:15.451Z,13.37
2018-11-10T11:42:44.266Z,12.83
2018-11-10T11:45:13.452Z,12.03
2018-11-10T11:47:42.554Z,12.47
2018-11-10T11:50:12.206Z,11.93
2018-11-10T11:52:41.269Z,14.23
2018-11-10T11:55:10.340Z,12.67
2018-11-10T11:57:38.772Z,12.77
2018-11-10T12:00:09.449Z,14.33
2018-11-10T12:02:37.776Z,13.07
2018-11-10T12:05:06.925Z,12.73
2018-11-10T12:07:35.236Z,12.00
2018-11-10T12:10:03.552Z,11.60
2018-11-10T12:12:31.863Z,10.87
2018-11-10T12:15:00.186Z,9.87
2018-11-10T12:17:28.504Z,11.67
2018-11-10T12:19:56.800Z,11.33
2018-11-10T12:22:25.109Z,11.37
2018-11-10T12:24:53.417Z,12.10
2018-11-10T12:27:21.776Z,10.77
2018-11-10T12:29:50.056Z,11.13
2018-11-10T12:32:18.382Z,11.40
2018-11-10T12:34:46.680Z,10.73
2018-11-10T12:37:14.991Z,9.87
2018-11-10T12:39:43.288Z,10.63
2018-11-10T12:42:11.612Z,10.70
2018-11-10T12:44:39.956Z,10.10
2018-11-10T12:47:08.345Z,10.43
2018-11-10T12:49:36.584Z,10.53
2018-11-10T12:52:05.240Z,9.87
2018-11-10T12:54:33.545Z,10.03
2018-11-10T12:57:01.875Z,10.50
2018-11-10T12:59:30.176Z,10.17
2018-11-10T13:01:58.493Z,10.10
2018-11-10T13:04:26.785Z,9.00
2018-11-10T13:06:55.150Z,9.90
2018-11-10T13:09:23.429Z,9.27
2018-11-10T13:11:51.761Z,9.97
2018-11-10T13:14:20.117Z,9.90
2018-11-10T13:16:48.419Z,8.80
2018-11-10T13:19:16.723Z,9.23
2018-11-10T13:21:45.041Z,9.17
2018-11-10T13:24:13.373Z,9.17
2018-11-10T13:26:41.660Z,9.13
2018-11-10T13:29:09.967Z,9.50
2018-11-10T13:34:41.225Z,7.93
2018-11-10T13:37:09.578Z,8.33
2018-11-10T13:39:37.880Z,8.80
2018-11-10T13:42:06.255Z,8.97
2018-11-10T13:44:34.675Z,9.27
2018-11-10T13:47:02.965Z,8.57
2018-11-10T13:49:31.264Z,8.63
2018-11-10T13:51:59.877Z,9.57
2018-11-10T13:54:27.885Z,9.30
2018-11-10T13:56:56.199Z,9.00
2018-11-10T13:59:24.531Z,10.10
2018-11-10T14:01:52.828Z,8.77
2018-11-10T14:04:21.118Z,8.37
2018-11-10T14:06:49.432Z,8.47
2018-11-10T14:09:17.727Z,8.70
2018-11-10T14:11:46.113Z,8.33
2018-11-10T14:14:14.409Z,8.50
2018-11-10T14:16:42.766Z,8.97
2018-11-10T14:19:11.076Z,8.80
2018-11-10T14:21:39.373Z,9.70
2018-11-10T14:24:07.785Z,8.57
2018-11-10T14:26:36.068Z,8.90
2018-11-10T14:29:04.932Z,8.70
2018-11-10T14:31:33.266Z,9.00
2018-11-10T14:34:01.596Z,8.83
2018-11-10T14:36:29.887Z,8.13
2018-11-10T14:38:58.200Z,9.00
2018-11-10T14:41:26.537Z,8.57
2018-11-10T14:43:54.855Z,9.27
2018-11-10T14:46:23.174Z,8.83
2018-11-10T14:48:51.480Z,8.67
2018-11-10T14:51:19.769Z,9.03
2018-11-10T14:53:48.084Z,8.87
2018-11-10T14:56:16.392Z,9.23
2018-11-10T14:58:44.817Z,8.83
2018-11-10T15:01:13.017Z,8.37
2018-11-10T15:03:41.316Z,8.80
2018-11-10T15:06:09.613Z,8.83
2018-11-10T15:08:37.924Z,9.30
2018-11-10T15:11:06.593Z,8.87
2018-11-10T15:13:34.912Z,9.43
2018-11-10T15:16:03.204Z,9.43
2018-11-10T15:18:31.597Z,9.63
2018-11-10T15:20:59.824Z,9.37
2018-11-10T15:23:28.141Z,9.40
2018-11-10T15:25:56.434Z,9.43
2018-11-10T15:28:24.752Z,10.03
2018-11-10T15:30:53.048Z,9.87
2018-11-10T15:33:21.360Z,9.50
2018-11-10T15:35:49.652Z,10.53
2018-11-10T15:38:17.969Z,9.90
2018-11-10T15:40:46.259Z,10.70
2018-11-10T15:43:14.591Z,9.97
2018-11-10T15:45:42.895Z,10.27
2018-11-10T15:48:11.208Z,10.23
2018-11-10T15:50:39.559Z,10.37
2018-11-10T15:53:07.848Z,10.60
2018-11-10T15:55:36.143Z,9.67
2018-11-10T15:58:04.464Z,10.70
2018-11-10T16:00:32.768Z,10.97
2018-11-10T16:03:01.084Z,10.07
2018-11-10T16:05:29.376Z,10.87
2018-11-10T16:07:57.701Z,10.67
2018-11-10T16:10:26.379Z,10.57
2018-11-10T16:12:54.638Z,10.13
2018-11-10T16:15:22.924Z,11.47
2018-11-10T16:17:51.275Z,11.37
2018-11-10T16:20:20.481Z,10.90
2018-11-10T16:22:50.010Z,11.17
2018-11-10T16:25:18.712Z,12.77
2018-11-10T16:27:47.300Z,12.50
2018-11-10T16:30:16.870Z,11.93
2018-11-10T16:32:45.480Z,11.27
2018-11-10T16:35:13.767Z,13.20
2018-11-10T16:37:42.308Z,13.30
2018-11-10T16:40:13.265Z,12.80
2018-11-10T16:42:42.484Z,12.93
2018-11-10T16:45:11.513Z,12.17
2018-11-10T16:47:39.814Z,13.23
2018-11-10T16:50:08.336Z,14.30
2018-11-10T16:52:36.649Z,13.30
2018-11-10T16:55:05.551Z,13.43
2018-11-10T16:57:33.836Z,13.00
2018-11-10T17:00:02.156Z,14.90
2018-11-10T17:02:30.474Z,13.57
2018-11-10T17:04:58.791Z,13.43
2018-11-10T17:07:27.107Z,13.97
2018-11-10T17:09:55.417Z,14.23
2018-11-10T17:12:23.711Z,15.20
2018-11-10T17:14:52.028Z,15.63
2018-11-10T17:17:20.439Z,15.40
2018-11-10T17:19:48.765Z,17.97
2018-11-10T17:22:17.134Z,15.67
2018-11-10T17:24:45.406Z,15.60
2018-11-10T17:27:13.703Z,13.73
2018-11-10T17:29:42.031Z,15.63
2018-11-10T17:32:10.504Z,14.63
2018-11-10T17:34:38.823Z,15.07
2018-11-10T17:37:07.139Z,14.13
2018-11-10T17:39:35.477Z,13.77
2018-11-10T17:42:03.868Z,15.83
2018-11-10T17:44:32.174Z,14.07
2018-11-10T17:47:00.529Z,13.13
2018-11-10T17:49:28.840Z,15.50
2018-11-10T17:51:57.183Z,12.97
2018-11-10T17:54:25.612Z,14.50
2018-11-10T17:56:53.912Z,14.60
2018-11-10T17:59:22.242Z,14.87
2018-11-10T18:01:50.706Z,14.97
2018-11-10T18:04:18.867Z,16.57
2018-11-10T18:06:47.160Z,16.87
2018-11-10T18:09:15.479Z,16.23
2018-11-10T18:11:43.803Z,17.07
2018-11-10T18:14:12.117Z,17.07
2018-11-10T18:16:40.420Z,15.87
2018-11-10T18:19:08.762Z,17.57
2018-11-10T18:21:42.391Z,17.10
2018-11-10T18:24:10.719Z,17.10
2018-11-10T18:26:39.015Z,17.93
2018-11-10T18:29:07.323Z,16.40
2018-11-10T18:31:35.620Z,16.93
2018-11-10T18:34:03.947Z,17.47
2018-11-10T18:36:32.240Z,16.03
2018-11-10T18:39:00.557Z,17.40
2018-11-10T18:41:28.926Z,18.10
2018-11-10T18:43:57.243Z,17.07
2018-11-10T18:46:25.577Z,16.50
2018-11-10T18:48:53.888Z,17.07
2018-11-10T18:51:22.328Z,17.50
2018-11-10T18:53:50.700Z,17.17
2018-11-10T18:56:19.084Z,17.73
2018-11-10T18:58:47.416Z,17.73
2018-11-10T19:01:15.841Z,16.07
2018-11-10T19:03:44.153Z,17.03
2018-11-10T19:06:12.690Z,17.93
2018-11-10T19:08:41.076Z,16.47
2018-11-10T19:11:09.435Z,16.30
2018-11-10T19:13:37.849Z,18.00
2018-11-10T19:16:06.181Z,16.50
2018-11-10T19:18:34.511Z,16.60
2018-11-10T19:21:02.944Z,16.17
2018-11-10T19:23:31.331Z,16.37
2018-11-10T19:25:59.644Z,16.37
2018-11-10T19:28:27.992Z,17.37
2018-11-10T19:30:56.324Z,17.87
2018-11-10T19:33:24.632Z,18.13
2018-11-10T19:35:52.944Z,18.43
2018-11-10T19:38:21.270Z,17.83
2018-11-10T19:40:49.597Z,17.60
2018-11-10T19:43:17.925Z,16.80
2018-11-10T19:45:46.264Z,17.27
2018-11-10T19:48:14.566Z,18.53
2018-11-10T19:50:42.978Z,18.47
2018-11-10T19:53:11.203Z,18.60
2018-11-10T19:55:39.517Z,17.70
2018-11-10T19:58:07.816Z,18.70
2018-11-10T20:00:36.185Z,18.07
2018-11-10T20:03:04.453Z,17.97
2018-11-10T20:05:39.293Z,17.07
2018-11-10T20:08:07.585Z,17.07
2018-11-10T20:10:35.913Z,16.37
2018-11-10T20:13:04.256Z,16.17
2018-11-10T20:15:32.572Z,14.50
2018-11-10T20:18:00.868Z,15.47
2018-11-10T20:20:29.184Z,17.47
2018-11-10T20:22:57.497Z,17.73
2018-11-10T20:25:25.808Z,16.47
2018-11-10T20:27:54.098Z,16.80
2018-11-10T20:30:22.417Z,17.50
2018-11-10T20:32:50.751Z,16.73
2018-11-10T20:35:19.047Z,17.07
2018-11-10T20:37:47.661Z,17.10
2018-11-10T20:40:16.468Z,16.20
2018-11-10T20:42:44.767Z,16.20
2018-11-10T20:45:15.988Z,15.00
2018-11-10T20:47:44.279Z,14.17
2018-11-10T20:50:13.360Z,14.13
2018-11-10T20:52:41.656Z,15.27
2018-11-10T20:55:10.732Z,12.67
2018-11-10T20:57:39.064Z,13.20
2018-11-10T21:00:10.633Z,11.27
2018-11-10T21:02:39.743Z,14.43
2018-11-10T21:05:09.068Z,16.67
2018-11-10T21:07:37.380Z,15.23
2018-11-10T21:10:07.440Z,15.23
2018-11-10T21:12:35.746Z,16.50
2018-11-10T21:15:04.090Z,15.20
2018-11-10T21:17:32.384Z,13.37
2018-11-10T21:20:00.705Z,16.13
2018-11-10T21:22:29.037Z,14.47
2018-11-10T21:24:57.328Z,15.93
2018-11-10T21:27:25.640Z,16.03
2018-11-10T21:29:53.989Z,14.67
2018-11-10T21:32:22.270Z,13.67
2018-11-10T21:34:50.617Z,12.90
2018-11-10T21:37:18.896Z,15.73
2018-11-10T21:39:47.202Z,14.50
2018-11-10T21:42:16.126Z,13.57
2018-11-10T21:44:44.433Z,13.97
2018-11-10T21:47:12.744Z,13.60
2018-11-10T21:49:41.189Z,12.63
2018-11-10T21:52:09.373Z,16.83
2018-11-10T21:54:37.720Z,12.13
2018-11-10T21:57:06.139Z,12.50
2018-11-10T21:59:34.442Z,12.10
2018-11-10T22:02:02.756Z,10.80
2018-11-10T22:04:31.053Z,14.20
2018-11-10T22:06:59.360Z,13.70
2018-11-10T22:09:27.826Z,13.23
2018-11-10T22:11:55.983Z,10.20
2018-11-10T22:14:24.284Z,13.07
2018-11-10T22:16:52.592Z,12.93
2018-11-10T22:19:20.882Z,12.07
2018-11-10T22:21:49.204Z,11.60
2018-11-10T22:24:17.499Z,15.17
2018-11-10T22:26:45.807Z,15.73
2018-11-10T22:29:14.096Z,12.33
2018-11-10T22:31:42.415Z,14.03
2018-11-10T22:34:10.712Z,13.07
2018-11-10T22:36:39.023Z,13.90
2018-11-10T22:39:08.468Z,14.73
2018-11-10T22:41:36.785Z,14.90
2018-11-10T22:44:05.116Z,15.77
2018-11-10T22:46:33.462Z,14.47
2018-11-10T22:49:01.760Z,16.60
2018-11-10T22:51:30.076Z,13.53
2018-11-10T22:53:58.369Z,15.50
2018-11-10T22:56:26.701Z,15.47
2018-11-10T22:58:55.005Z,13.63
2018-11-10T23:01:27.552Z,14.70
2018-11-10T23:03:55.857Z,14.47
2018-11-10T23:06:24.174Z,11.77
2018-11-10T23:08:52.466Z,15.40
2018-11-10T23:11:20.785Z,14.63
2018-11-10T23:13:49.081Z,15.43
2018-11-10T23:16:23.950Z,14.97
2018-11-10T23:18:52.240Z,15.50
2018-11-10T23:21:20.556Z,14.33
2018-11-10T23:23:48.852Z,14.33
2018-11-10T23:26:17.168Z,17.93
2018-11-10T23:28:45.465Z,13.93
2018-11-10T23:31:13.772Z,14.97
2018-11-10T23:33:42.064Z,15.57
2018-11-10T23:36:10.365Z,16.27
2018-11-10T23:38:38.648Z,16.03
2018-11-10T23:41:06.968Z,15.70
2018-11-10T23:43:35.260Z,15.80
2018-11-10T23:46:03.569Z,14.47
2018-11-10T23:48:31.919Z,15.37
2018-11-10T23:51:00.236Z,13.20
2018-11-10T23:53:28.536Z,14.73
2018-11-10T23:55:56.820Z,14.43
2018-11-10T23:58:25.139Z,12.10
